This is the latest recevied weather packets stored in our database for station/object IZ8GMP-13. If no packets are shown the sender has not sent any weather packets the latest 10 day(s).
| Time | Temp. | Humidity | Pressure | Rain* | Wind** | Luminosity | Snow |
|---|---|---|---|---|---|---|---|
| 1777518642 | 18.33° C | 58% | 1014.7 hPa | - | - | - | - |
| 1777517438 | 18.89° C | 43% | 1014.6 hPa | - | - | - | - |
| 1777516234 | 18.33° C | 48% | 1014.8 hPa | - | - | - | - |
| 1777515030 | 17.22° C | 73% | 1014.8 hPa | - | - | - | - |
| 1777513826 | 16.67° C | 76% | 1014.8 hPa | - | - | - | - |
| 1777512622 | 17.22° C | 77% | 1014.7 hPa | - | - | - | - |
| 1777511418 | 18.89° C | 60% | 1015 hPa | - | - | - | - |
| 1777510214 | 19.44° C | 41% | 1015 hPa | - | - | - | - |
| 1777509011 | 19.44° C | 40% | 1015 hPa | - | - | - | - |
| 1777507807 | 19.44° C | 39% | 1015.2 hPa | - | - | - | - |
| 1777505400 | 18.89° C | 39% | 1015.5 hPa | - | - | - | - |
| 1777504197 | 18.89° C | 40% | 1015.5 hPa | - | - | - | - |
| 1777502993 | 19.44° C | 38% | 1015.5 hPa | - | - | - | - |
| 1777501790 | 19.44° C | 39% | 1015.8 hPa | - | - | - | - |
| 1777496976 | 18.89° C | 52% | 1016 hPa | - | - | - | - |
| 1777494569 | 18.89° C | 51% | 1016 hPa | - | - | - | - |
| 1777490959 | 19.44° C | 44% | 1015.8 hPa | - | - | - | - |
| 1777489755 | 20° C | 45% | 1015.9 hPa | - | - | - | - |
| 1777488552 | 20° C | 46% | 1015.6 hPa | - | - | - | - |
| 1777487348 | 20° C | 47% | 1015.4 hPa | - | - | - | - |
| 1777486145 | 20° C | 46% | 1015.4 hPa | - | - | - | - |
| 1777484941 | 20.56° C | 42% | 1015.4 hPa | - | - | - | - |
| 1777483738 | 20.56° C | 40% | 1015.2 hPa | - | - | - | - |
| 1777482534 | 21.11° C | 43% | 1015.3 hPa | - | - | - | - |
| 1777481331 | 21.11° C | 40% | 1015.3 hPa | - | - | - | - |
* Rain since midnight (hover to see other rain measurements)
** Current wind speed in m/s (hover to see current wind gust speed)